createdAt,value
2022-11-24T00:00:31.413Z,8.25
2022-11-24T00:02:58.182Z,7.28
2022-11-24T00:05:24.671Z,8.35
2022-11-24T00:07:51.155Z,5.78
2022-11-24T00:10:17.652Z,7.57
2022-11-24T00:12:44.038Z,6.80
2022-11-24T00:15:10.679Z,9.27
2022-11-24T00:17:37.058Z,6.45
2022-11-24T00:20:03.692Z,8.07
2022-11-24T00:22:30.712Z,9.57
2022-11-24T00:24:57.104Z,12.60
2022-11-24T00:27:23.479Z,12.38
2022-11-24T00:29:49.891Z,10.20
2022-11-24T00:32:16.243Z,14.27
2022-11-24T00:34:42.611Z,7.95
2022-11-24T00:37:09.018Z,11.63
2022-11-24T00:39:35.404Z,7.72
2022-11-24T00:42:02.005Z,9.13
2022-11-24T00:44:28.398Z,11.90
2022-11-24T00:46:54.854Z,10.13
2022-11-24T00:49:21.309Z,11.25
2022-11-24T00:51:47.796Z,13.00
2022-11-24T00:54:14.263Z,10.43
2022-11-24T00:56:40.703Z,14.43
2022-11-24T00:59:07.284Z,10.98
2022-11-24T01:01:34.031Z,10.55
2022-11-24T01:04:03.760Z,12.40
2022-11-24T01:06:30.755Z,14.50
2022-11-24T01:08:57.570Z,15.05
2022-11-24T01:11:30.084Z,9.45
2022-11-24T01:13:58.884Z,10.18
2022-11-24T01:16:29.181Z,10.52
2022-11-24T01:18:55.972Z,11.90
2022-11-24T01:21:22.731Z,11.02
2022-11-24T01:23:49.193Z,7.88
2022-11-24T01:26:18.597Z,10.35
2022-11-24T01:28:47.567Z,15.63
2022-11-24T01:31:14.719Z,12.57
2022-11-24T01:33:41.243Z,11.32
2022-11-24T01:36:07.696Z,10.55
2022-11-24T01:38:34.156Z,9.32
2022-11-24T01:41:06.787Z,10.93
2022-11-24T01:43:33.607Z,11.18
2022-11-24T01:46:15.125Z,10.88
2022-11-24T01:48:44.684Z,8.45
2022-11-24T01:51:13.867Z,12.27
2022-11-24T01:53:42.199Z,13.52
2022-11-24T01:56:08.923Z,12.40
2022-11-24T01:58:36.210Z,11.85
2022-11-24T02:01:02.881Z,13.20
2022-11-24T02:03:34.547Z,7.25
2022-11-24T02:06:13.125Z,10.15
2022-11-24T02:08:47.171Z,10.98
2022-11-24T02:11:13.604Z,12.27
2022-11-24T02:13:41.142Z,12.52
2022-11-24T02:16:08.753Z,13.85
2022-11-24T02:18:37.010Z,11.07
2022-11-24T02:21:03.526Z,10.43
2022-11-24T02:23:45.085Z,14.07
2022-11-24T02:26:19.576Z,13.73
2022-11-24T02:28:46.240Z,9.60
2022-11-24T02:31:12.948Z,13.60
2022-11-24T02:33:39.722Z,14.15
2022-11-24T02:36:06.479Z,10.07
2022-11-24T02:38:34.500Z,11.63
2022-11-24T02:41:09.216Z,13.00
2022-11-24T02:43:39.799Z,9.70
2022-11-24T02:46:06.816Z,12.55
2022-11-24T02:48:33.533Z,9.52
2022-11-24T02:50:59.927Z,9.38
2022-11-24T02:53:26.300Z,11.02
2022-11-24T02:55:53.184Z,13.25
2022-11-24T02:58:19.612Z,12.23
2022-11-24T03:00:46.081Z,13.77
2022-11-24T03:03:12.648Z,13.73
2022-11-24T03:05:39.132Z,18.77
2022-11-24T03:08:05.639Z,12.10
2022-11-24T03:10:32.313Z,12.55
2022-11-24T03:12:58.710Z,16.25
2022-11-24T03:15:25.133Z,17.08
2022-11-24T03:17:54.475Z,16.52
2022-11-24T03:20:20.946Z,15.55
2022-11-24T03:22:47.354Z,11.40
2022-11-24T03:25:13.755Z,11.45
2022-11-24T03:27:40.163Z,11.57
2022-11-24T03:30:07.577Z,10.38
2022-11-24T03:32:34.021Z,15.43
2022-11-24T03:35:00.386Z,12.23
2022-11-24T03:37:26.790Z,12.00
2022-11-24T03:39:53.181Z,19.88
2022-11-24T03:42:19.560Z,20.33
2022-11-24T03:44:45.928Z,15.07
2022-11-24T03:47:12.502Z,15.73
2022-11-24T03:49:39.039Z,15.32
2022-11-24T03:52:08.190Z,14.48
2022-11-24T03:54:35.471Z,12.82
2022-11-24T03:57:02.085Z,11.65
2022-11-24T03:59:28.454Z,16.65
2022-11-24T04:01:55.034Z,16.20
2022-11-24T04:04:21.448Z,14.43
2022-11-24T04:06:47.826Z,14.65
2022-11-24T04:09:14.280Z,15.50
2022-11-24T04:12:06.843Z,13.80
2022-11-24T04:14:33.481Z,12.63
2022-11-24T04:17:00.117Z,16.05
2022-11-24T04:19:26.634Z,17.70
2022-11-24T04:21:53.095Z,15.88
2022-11-24T04:24:19.453Z,17.77
2022-11-24T04:26:45.823Z,14.57
2022-11-24T04:29:12.261Z,12.30
2022-11-24T04:31:38.722Z,17.42
2022-11-24T04:34:05.158Z,14.68
2022-11-24T04:36:31.594Z,17.77
2022-11-24T04:39:23.333Z,15.82
2022-11-24T04:41:44.406Z,18.40
2022-11-24T04:44:10.775Z,15.10
2022-11-24T04:46:37.174Z,13.45
2022-11-24T04:49:03.603Z,16.08
2022-11-24T04:51:29.989Z,18.50
2022-11-24T04:53:56.428Z,13.43
2022-11-24T04:56:23.082Z,16.80
2022-11-24T04:58:49.760Z,14.00
2022-11-24T05:01:16.278Z,15.40
2022-11-24T05:03:42.740Z,14.93
2022-11-24T05:06:09.124Z,12.60
2022-11-24T05:08:35.646Z,14.20
2022-11-24T05:11:06.233Z,13.90
2022-11-24T05:13:32.931Z,9.50
2022-11-24T05:16:00.196Z,12.05
2022-11-24T05:18:26.678Z,14.40
2022-11-24T05:20:53.041Z,15.07
2022-11-24T05:23:19.436Z,12.65
2022-11-24T05:25:47.734Z,13.32
2022-11-24T05:28:14.491Z,15.15
2022-11-24T05:30:42.012Z,15.30
2022-11-24T05:33:12.537Z,14.85
2022-11-24T05:35:38.931Z,14.40
2022-11-24T05:38:05.303Z,19.17
2022-11-24T05:40:31.749Z,15.60
2022-11-24T05:42:58.208Z,14.68
2022-11-24T05:45:24.701Z,15.65
2022-11-24T05:47:51.511Z,17.33
2022-11-24T05:50:20.181Z,13.35
2022-11-24T05:52:46.987Z,13.75
2022-11-24T05:55:19.342Z,15.32
2022-11-24T05:57:45.795Z,14.90
2022-11-24T06:00:13.189Z,14.23
2022-11-24T06:02:39.783Z,17.27
2022-11-24T06:05:06.477Z,17.00
2022-11-24T06:07:32.940Z,14.07
2022-11-24T06:09:59.417Z,15.38
2022-11-24T06:12:25.835Z,14.98
2022-11-24T06:14:52.447Z,15.30
2022-11-24T06:17:19.022Z,14.20
2022-11-24T06:19:47.852Z,12.82
2022-11-24T06:22:14.359Z,8.80
2022-11-24T06:24:40.802Z,13.02
2022-11-24T06:27:07.672Z,13.30
2022-11-24T06:29:34.104Z,9.75
2022-11-24T06:32:00.607Z,10.95
2022-11-24T06:34:27.077Z,13.82
2022-11-24T06:36:53.451Z,10.30
2022-11-24T06:39:19.834Z,10.18
2022-11-24T06:41:46.289Z,14.48
2022-11-24T06:44:12.696Z,11.02
2022-11-24T06:46:39.128Z,12.88
2022-11-24T06:49:05.654Z,15.40
2022-11-24T06:51:32.046Z,10.38
2022-11-24T06:53:58.492Z,14.90
2022-11-24T06:56:25.158Z,12.70
2022-11-24T06:58:53.146Z,10.30
2022-11-24T07:01:22.002Z,12.50
2022-11-24T07:03:49.243Z,12.23
2022-11-24T07:06:16.260Z,11.55
2022-11-24T07:08:42.846Z,12.02
2022-11-24T07:11:11.568Z,9.77
2022-11-24T07:13:38.040Z,9.48
2022-11-24T07:16:31.211Z,10.88
2022-11-24T07:18:58.312Z,12.85
2022-11-24T07:21:25.997Z,12.85
2022-11-24T07:23:54.195Z,12.85
2022-11-24T07:26:21.218Z,15.27
2022-11-24T07:28:47.852Z,15.93
2022-11-24T07:31:17.234Z,10.20
2022-11-24T07:33:43.738Z,11.30
2022-11-24T07:36:10.118Z,14.68
2022-11-24T07:38:36.791Z,12.52
2022-11-24T07:41:05.999Z,13.10
2022-11-24T07:43:33.456Z,10.20
2022-11-24T07:46:00.218Z,14.13
2022-11-24T07:48:26.979Z,13.38
2022-11-24T07:50:56.036Z,14.23
2022-11-24T07:53:22.867Z,13.20
2022-11-24T07:55:56.780Z,11.13
2022-11-24T07:58:24.769Z,10.60
2022-11-24T08:00:54.050Z,11.27
2022-11-24T08:03:20.635Z,12.30
2022-11-24T08:08:43.743Z,12.07
2022-11-24T08:11:15.629Z,13.43
2022-11-24T08:13:42.514Z,10.32
2022-11-24T08:16:13.836Z,12.88
2022-11-24T08:18:41.185Z,14.43
2022-11-24T08:21:12.323Z,14.32
2022-11-24T08:23:38.907Z,11.85
2022-11-24T08:26:10.925Z,13.45
2022-11-24T08:28:38.108Z,10.55
2022-11-24T08:31:06.687Z,10.90
2022-11-24T08:33:33.125Z,10.38
2022-11-24T08:36:04.522Z,12.07
2022-11-24T08:38:30.963Z,8.98
2022-11-24T08:41:09.710Z,9.10
2022-11-24T08:43:36.679Z,9.52
2022-11-24T08:46:06.173Z,10.88
2022-11-24T08:48:33.296Z,8.77
2022-11-24T08:50:59.848Z,9.07
2022-11-24T08:53:26.341Z,10.25
2022-11-24T08:55:52.805Z,12.20
2022-11-24T08:58:21.955Z,18.45
2022-11-24T09:00:49.887Z,17.63
2022-11-24T09:03:16.389Z,14.13
2022-11-24T09:05:51.713Z,11.32
2022-11-24T09:08:18.919Z,11.60
2022-11-24T09:10:45.647Z,9.80
2022-11-24T09:13:12.181Z,11.63
2022-11-24T09:15:38.596Z,21.35
2022-11-24T09:18:05.442Z,12.77
2022-11-24T09:20:31.904Z,9.30
2022-11-24T09:22:58.340Z,7.90
2022-11-24T09:25:24.764Z,8.40
2022-11-24T09:27:51.232Z,7.38
2022-11-24T09:30:17.934Z,10.50
2022-11-24T09:32:44.341Z,11.00
2022-11-24T09:35:10.760Z,11.27
2022-11-24T09:37:37.271Z,8.63
2022-11-24T09:40:04.028Z,11.80
2022-11-24T09:42:41.247Z,8.38
2022-11-24T09:45:13.820Z,10.98
2022-11-24T09:47:52.266Z,8.32
2022-11-24T09:50:24.872Z,9.30
2022-11-24T09:53:03.677Z,10.88
2022-11-24T09:55:38.409Z,9.15
2022-11-24T09:58:35.700Z,9.27
2022-11-24T10:01:05.781Z,13.43
2022-11-24T10:03:34.677Z,9.82
2022-11-24T10:06:04.370Z,12.20
2022-11-24T10:08:43.172Z,9.52
2022-11-24T10:11:15.714Z,11.32
2022-11-24T10:14:02.909Z,11.45
2022-11-24T10:16:35.377Z,8.98
2022-11-24T10:19:14.312Z,14.13
2022-11-24T10:22:06.963Z,10.50
2022-11-24T10:25:01.324Z,11.90
2022-11-24T10:27:37.980Z,12.82
2022-11-24T10:30:12.935Z,8.65
2022-11-24T10:32:43.065Z,10.70
2022-11-24T10:35:21.618Z,8.70
2022-11-24T10:38:26.631Z,9.27
2022-11-24T10:41:03.276Z,12.65
2022-11-24T10:43:29.823Z,10.60
2022-11-24T10:46:16.777Z,11.15
2022-11-24T10:48:51.060Z,12.38
2022-11-24T10:51:36.896Z,12.63
2022-11-24T10:54:26.900Z,8.07
2022-11-24T10:56:54.299Z,10.10
2022-11-24T10:59:35.928Z,7.13
2022-11-24T11:02:04.017Z,8.95
2022-11-24T11:04:31.669Z,6.82
2022-11-24T11:07:13.778Z,9.50
2022-11-24T11:09:40.256Z,9.68
2022-11-24T11:12:42.040Z,10.18
2022-11-24T11:15:21.207Z,11.02
2022-11-24T11:17:50.391Z,9.27
2022-11-24T11:20:19.631Z,10.35
2022-11-24T11:22:48.110Z,9.88
2022-11-24T11:25:17.929Z,14.02
2022-11-24T11:27:44.324Z,9.48
2022-11-24T11:35:51.173Z,17.08
2022-11-24T11:38:17.788Z,18.63
2022-11-24T11:40:44.340Z,13.63
2022-11-24T11:43:28.948Z,11.23
2022-11-24T11:46:02.204Z,13.68
2022-11-24T11:48:40.820Z,13.73
2022-11-24T11:51:28.086Z,15.15
2022-11-24T11:54:27.008Z,17.17
2022-11-24T11:57:30.691Z,16.30
2022-11-24T12:00:12.688Z,23.83
2022-11-24T12:02:46.105Z,20.52
2022-11-24T12:05:30.480Z,16.08
2022-11-24T12:08:23.507Z,12.07
2022-11-24T12:11:09.626Z,13.48
2022-11-24T12:13:48.151Z,15.23
2022-11-24T12:16:45.591Z,18.02
2022-11-24T12:19:24.056Z,12.50
2022-11-24T12:21:53.468Z,8.07
2022-11-24T12:24:50.560Z,7.38
2022-11-24T12:27:32.184Z,10.32
2022-11-24T12:30:04.484Z,8.13
2022-11-24T12:33:12.235Z,11.20
2022-11-24T12:35:45.683Z,13.73
2022-11-24T12:38:41.010Z,11.63
2022-11-24T12:41:41.794Z,8.65
2022-11-24T12:44:31.000Z,10.57
2022-11-24T12:47:10.028Z,8.40
2022-11-24T12:49:47.250Z,9.65
2022-11-24T12:52:24.372Z,9.85
2022-11-24T12:54:50.836Z,9.27
2022-11-24T12:57:30.847Z,21.38
2022-11-24T13:00:08.439Z,15.52
2022-11-24T13:02:47.057Z,11.35
2022-11-24T13:05:28.026Z,10.50
2022-11-24T13:08:03.553Z,8.98
2022-11-24T13:13:28.987Z,15.05
2022-11-24T13:18:57.287Z,8.65
2022-11-24T13:21:42.879Z,10.40
2022-11-24T13:24:19.267Z,11.50
2022-11-24T13:26:49.006Z,10.32
2022-11-24T13:29:27.827Z,10.45
2022-11-24T13:31:55.489Z,7.93
2022-11-24T13:34:40.276Z,8.93
2022-11-24T13:37:26.833Z,12.30
2022-11-24T13:40:23.225Z,12.05
2022-11-24T13:43:12.842Z,9.93
2022-11-24T13:45:39.247Z,9.50
2022-11-24T13:48:21.650Z,8.68
2022-11-24T13:50:50.607Z,9.20
2022-11-24T13:53:35.575Z,8.75
2022-11-24T13:56:14.922Z,11.35
2022-11-24T13:58:44.196Z,13.38
2022-11-24T14:01:13.579Z,12.07
2022-11-24T14:06:51.303Z,20.83
2022-11-24T14:09:43.672Z,11.98
2022-11-24T14:12:14.187Z,12.43
2022-11-24T14:14:41.465Z,12.75
2022-11-24T14:17:15.630Z,12.23
2022-11-24T14:19:47.242Z,17.75
2022-11-24T14:22:26.904Z,9.98
2022-11-24T14:24:57.842Z,12.68
2022-11-24T14:27:30.625Z,12.07
2022-11-24T14:30:21.062Z,8.82
2022-11-24T14:32:58.075Z,9.88
2022-11-24T14:35:29.187Z,9.30
2022-11-24T14:37:55.943Z,14.05
2022-11-24T14:40:38.722Z,14.55
2022-11-24T14:43:29.978Z,6.70
2022-11-24T14:46:00.377Z,9.90
2022-11-24T14:48:50.646Z,10.85
2022-11-24T14:51:24.127Z,17.45
2022-11-24T14:53:56.786Z,12.98
2022-11-24T14:56:26.233Z,9.70
2022-11-24T14:58:54.134Z,10.45
2022-11-24T15:01:22.346Z,8.68
2022-11-24T15:04:13.056Z,10.88
2022-11-24T15:06:49.732Z,11.63
2022-11-24T15:09:30.556Z,12.15
2022-11-24T15:11:57.398Z,11.30
2022-11-24T15:14:36.246Z,8.80
2022-11-24T15:17:02.957Z,12.27
2022-11-24T15:19:32.903Z,12.27
2022-11-24T15:21:59.523Z,11.48
2022-11-24T15:24:26.018Z,9.85
2022-11-24T15:27:00.114Z,11.85
2022-11-24T15:29:26.723Z,10.20
2022-11-24T15:31:53.303Z,13.30
2022-11-24T15:34:19.842Z,11.25
2022-11-24T15:36:46.259Z,9.75
2022-11-24T15:39:12.797Z,9.70
2022-11-24T15:41:40.520Z,8.40
2022-11-24T15:44:07.800Z,10.15
2022-11-24T15:46:38.057Z,10.30
2022-11-24T15:49:05.141Z,13.38
2022-11-24T15:51:31.594Z,14.00
2022-11-24T15:54:01.165Z,11.98
2022-11-24T15:56:33.272Z,12.27
2022-11-24T15:59:01.031Z,11.48
2022-11-24T16:01:32.932Z,12.95
2022-11-24T16:04:08.606Z,11.85
2022-11-24T16:06:35.030Z,9.88
2022-11-24T16:09:01.643Z,13.02
2022-11-24T16:11:28.068Z,10.32
2022-11-24T16:13:57.291Z,12.02
2022-11-24T16:16:25.154Z,13.77
2022-11-24T16:18:51.691Z,13.65
2022-11-24T16:21:18.149Z,12.75
2022-11-24T16:23:45.553Z,14.23
2022-11-24T16:26:12.140Z,14.27
2022-11-24T16:28:38.708Z,11.27
2022-11-24T16:31:05.215Z,13.88
2022-11-24T16:33:31.726Z,11.73
2022-11-24T16:35:58.574Z,14.98
2022-11-24T16:38:24.983Z,14.98
2022-11-24T16:40:56.190Z,12.68
2022-11-24T16:43:22.647Z,15.68
2022-11-24T16:46:15.569Z,20.15
2022-11-24T16:48:42.043Z,16.23
2022-11-24T16:51:11.929Z,15.10
2022-11-24T16:53:39.218Z,11.40
2022-11-24T16:56:06.394Z,12.82
2022-11-24T16:58:32.807Z,13.70
2022-11-24T17:01:04.300Z,11.95
2022-11-24T17:03:33.404Z,14.80
2022-11-24T17:06:00.783Z,15.70
2022-11-24T17:08:30.641Z,13.73
2022-11-24T17:10:57.046Z,14.65
2022-11-24T17:13:24.162Z,13.00
2022-11-24T17:15:54.169Z,14.77
2022-11-24T17:18:25.406Z,14.45
2022-11-24T17:20:52.273Z,12.60
2022-11-24T17:23:19.628Z,15.75
2022-11-24T17:25:46.197Z,10.60
2022-11-24T17:28:12.679Z,14.73
2022-11-24T17:30:39.081Z,14.27
2022-11-24T17:33:05.754Z,14.75
2022-11-24T17:35:34.111Z,11.18
2022-11-24T17:38:01.187Z,12.95
2022-11-24T17:40:29.276Z,11.18
2022-11-24T17:43:00.235Z,13.05
2022-11-24T17:45:27.947Z,12.45
2022-11-24T17:47:54.959Z,10.48
2022-11-24T17:50:25.668Z,10.48
2022-11-24T17:52:53.170Z,11.27
2022-11-24T17:55:19.576Z,12.80
2022-11-24T17:57:46.119Z,9.02
2022-11-24T18:00:13.209Z,7.97
2022-11-24T18:02:39.681Z,9.45
2022-11-24T18:05:06.375Z,7.63
2022-11-24T18:07:35.293Z,6.13
2022-11-24T18:10:01.717Z,7.63
2022-11-24T18:12:28.108Z,8.40
2022-11-24T18:14:54.509Z,9.10
2022-11-24T18:17:20.891Z,8.63
2022-11-24T18:19:47.339Z,9.40
2022-11-24T18:22:13.711Z,6.85
2022-11-24T18:24:40.472Z,8.85
2022-11-24T18:27:07.015Z,11.43
2022-11-24T18:29:33.423Z,11.23
2022-11-24T18:32:00.248Z,11.05
2022-11-24T18:34:27.059Z,10.70
2022-11-24T18:36:53.473Z,13.50
2022-11-24T18:39:22.013Z,13.23
2022-11-24T18:41:48.448Z,20.48
2022-11-24T18:44:14.899Z,21.92
2022-11-24T18:46:41.372Z,21.20
2022-11-24T18:49:07.894Z,17.70
2022-11-24T18:51:34.356Z,18.88
2022-11-24T18:54:02.850Z,13.85
2022-11-24T18:56:29.440Z,12.25
2022-11-24T18:58:56.357Z,10.70
2022-11-24T19:01:27.809Z,10.45
2022-11-24T19:03:56.222Z,10.55
2022-11-24T19:06:24.354Z,9.18
2022-11-24T19:08:53.328Z,12.93
2022-11-24T19:11:21.554Z,10.05
2022-11-24T19:13:48.987Z,8.63
2022-11-24T19:16:16.995Z,10.20
2022-11-24T19:18:46.474Z,11.20
2022-11-24T19:21:17.692Z,7.07
2022-11-24T19:23:44.125Z,9.38
2022-11-24T19:26:10.634Z,6.40
2022-11-24T19:28:37.066Z,10.30
2022-11-24T19:31:06.021Z,7.55
2022-11-24T19:33:33.026Z,7.20
2022-11-24T19:36:04.784Z,7.13
2022-11-24T19:38:33.071Z,5.05
2022-11-24T19:41:04.015Z,10.23
2022-11-24T19:43:30.840Z,8.50
2022-11-24T19:46:05.647Z,6.80
2022-11-24T19:48:33.136Z,6.32
2022-11-24T19:51:04.851Z,8.20
2022-11-24T19:53:31.984Z,7.88
2022-11-24T19:56:05.177Z,8.15
2022-11-24T19:58:31.963Z,9.95
2022-11-24T20:01:24.656Z,11.25
2022-11-24T20:03:59.032Z,7.88
2022-11-24T20:06:26.980Z,8.35
2022-11-24T20:08:53.411Z,9.30
2022-11-24T20:11:20.941Z,9.13
2022-11-24T20:13:48.369Z,9.70
2022-11-24T20:16:20.873Z,9.68
2022-11-24T20:18:47.791Z,10.38
2022-11-24T20:21:21.905Z,12.35
2022-11-24T20:23:56.890Z,11.65
2022-11-24T20:26:24.708Z,15.88
2022-11-24T20:28:53.074Z,12.07
2022-11-24T20:31:22.324Z,13.75
2022-11-24T20:33:49.032Z,13.07
2022-11-24T20:36:18.276Z,12.10
2022-11-24T20:38:45.622Z,13.40
2022-11-24T20:41:23.681Z,12.95
2022-11-24T20:43:51.229Z,12.75
2022-11-24T20:46:20.146Z,14.35
2022-11-24T20:48:46.560Z,16.02
2022-11-24T20:51:15.796Z,11.15
2022-11-24T20:53:42.271Z,13.52
2022-11-24T20:56:11.704Z,14.70
2022-11-24T20:58:38.617Z,9.93
2022-11-24T21:01:13.946Z,12.00
2022-11-24T21:03:43.344Z,9.68
2022-11-24T21:06:10.868Z,12.55
2022-11-24T21:08:39.116Z,9.27
2022-11-24T21:11:07.057Z,15.50
2022-11-24T21:13:34.602Z,12.65
2022-11-24T21:16:10.514Z,11.60
2022-11-24T21:18:36.943Z,12.38
2022-11-24T21:21:03.418Z,10.15
2022-11-24T21:23:29.844Z,7.55
2022-11-24T21:26:05.121Z,10.57
2022-11-24T21:28:32.855Z,6.82
2022-11-24T21:31:04.765Z,8.40
2022-11-24T21:33:31.267Z,9.00
2022-11-24T21:36:05.439Z,6.85
2022-11-24T21:38:32.234Z,6.28
2022-11-24T21:41:08.833Z,8.70
2022-11-24T21:43:35.830Z,11.60
2022-11-24T21:46:02.933Z,16.17
2022-11-24T21:48:30.730Z,15.90
2022-11-24T21:51:02.684Z,15.13
2022-11-24T21:53:34.679Z,16.40
2022-11-24T21:56:03.422Z,18.95
2022-11-24T21:58:29.846Z,17.23
2022-11-24T22:01:02.906Z,19.35
2022-11-24T22:03:29.469Z,20.10
2022-11-24T22:05:57.190Z,19.92
2022-11-24T22:08:24.536Z,19.10
2022-11-24T22:10:51.206Z,24.23
2022-11-24T22:13:17.629Z,21.88
2022-11-24T22:15:44.068Z,21.20
2022-11-24T22:18:10.620Z,19.23
2022-11-24T22:20:37.085Z,20.67
2022-11-24T22:23:03.606Z,19.92
2022-11-24T22:25:30.033Z,17.63
2022-11-24T22:27:57.915Z,14.15
2022-11-24T22:30:24.352Z,18.17
2022-11-24T22:32:54.083Z,15.98
2022-11-24T22:35:20.857Z,12.68
2022-11-24T22:37:47.273Z,11.32
2022-11-24T22:40:13.682Z,11.15
2022-11-24T22:42:40.087Z,9.65
2022-11-24T22:45:07.282Z,7.82
2022-11-24T22:47:36.535Z,9.02
2022-11-24T22:50:03.100Z,9.40
2022-11-24T22:52:29.523Z,8.18
2022-11-24T22:54:55.958Z,6.70
2022-11-24T22:57:22.328Z,6.45
2022-11-24T22:59:48.791Z,5.53
2022-11-24T23:02:15.174Z,5.72
2022-11-24T23:04:41.607Z,6.55
2022-11-24T23:07:08.182Z,7.50
2022-11-24T23:09:34.612Z,12.23
2022-11-24T23:12:01.051Z,12.27
2022-11-24T23:14:28.772Z,27.35
2022-11-24T23:16:55.261Z,34.83
2022-11-24T23:19:21.638Z,24.23
2022-11-24T23:21:48.244Z,28.55
2022-11-24T23:24:14.636Z,25.67
2022-11-24T23:26:41.531Z,25.50
2022-11-24T23:29:08.432Z,24.67
2022-11-24T23:31:37.703Z,22.45
2022-11-24T23:34:04.449Z,21.05
2022-11-24T23:36:31.362Z,17.65
2022-11-24T23:39:03.067Z,12.15
2022-11-24T23:41:30.118Z,10.32
2022-11-24T23:43:56.510Z,8.32
2022-11-24T23:46:27.217Z,7.00
2022-11-24T23:48:54.518Z,7.07
2022-11-24T23:51:26.737Z,6.68
2022-11-24T23:53:54.036Z,6.00
2022-11-24T23:56:22.558Z,10.35
2022-11-24T23:58:49.300Z,18.38
